Cairo, Georgia
Current Conditions -  °F | °C
As of 2:55 PM on Wednesday 17 Dec 2014 (Local Time) from KTVI Reporting Station
Clear Clear  
Wind Chill: 64°   Ceiling: Unl
Heat Index: 64°   Visibility: 10mi
Dew Point: 41°   Wind: 5mph
Humidity: 42%   Direction: 290°WNW
Pressure: 30.14"   Gusts: NA
Location:  30.88°N, 84.21°W
Report Text: KTVI 171955Z AUTO 29004KT 10SM CLR 18/05 A3014 RMK AO2
Loading
Personal Weather Stations






























Interactive Weather Map New forecast layout! Learn more

10-Day Weather Forecast

Advertisements
Track Severe Weather on mobile